Polar Ranger — WDC8652 — position and weather

sailwx.info

Track history (hours):
 
Tides and Currents Weather Stations Pressure Air Temp Water Temp Dewpoint Dewpoint Depression Visibility Wind Speed Wind Dir Waves Ship Positions

Polar Ranger

Owner: Dunlap Towing Co., LaConner, WA. More information available from US FCC via Universal Licensing System and Coast Guard Vessel Documentation Center.

Last reported at 2016-Sep-25 17:33 UTC. Time now 2016-Sep-26 00:20 UTC.
Position N 42°04' W 125°37'.

Type: Towing. MMSI: 367090860.

Date/timePositionNaut miles runAvg speedWind from/ knotsBaromVisibWave heightAir tempDewpointWater temp
2016-Sep-25 17:33N 42°04' W 125°37'8 7.9
2016-Sep-25 16:33N 42°12' W 125°37'17 8.2
2016-Sep-25 14:27N 42°29' W 125°38'17 8.9
2016-Sep-25 12:31N 42°46' W 125°38'9 9.0
2016-Sep-25 11:33N 42°55' W 125°39'9 9.4
2016-Sep-25 10:33N 43°04' W 125°38'9 8.9
2016-Sep-25 09:33N 43°13' W 125°38'17 8.7
2016-Sep-25 07:34N 43°31' W 125°37'26 8.5
2016-Sep-25 04:34N 43°56' W 125°34'32 8.1
2016-Sep-25 00:32N 44°29' W 125°32'15 7.7
2016-Sep-24 22:33N 44°44' W 125°31'8 7.5
2016-Sep-24 21:32N 44°51' W 125°30'16 7.6
2016-Sep-24 19:28N 45°07' W 125°29'5 5.6
2016-Sep-24 18:32N 45°12' W 125°28'8 8.0
2016-Sep-24 17:33N 45°20' W 125°28'8 8.0
2016-Sep-24 16:33N 45°28' W 125°27'16 8.1
2016-Sep-24 14:33N 45°44' W 125°27'17 8.0
2016-Sep-24 12:28N 46°01' W 125°26'17 7.5
2016-Sep-24 10:15N 46°18' W 125°23'6 7.3
2016-Sep-24 09:26N 46°23' W 125°23'112 4.7
2016-Sep-23 09:31N 48°14' W 125°02'20 6.8
2016-Sep-23 06:33N 48°24' W 124°36'19 9.5
2016-Sep-23 04:31N 48°16' W 124°09'7 7.4
2016-Sep-23 03:31N 48°13' W 123°59'7 6.9
2016-Sep-23 02:32N 48°12' W 123°49'7 7.5
2016-Sep-23 01:33N 48°11' W 123°38'8 7.9
2016-Sep-23 00:33N 48°12' W 123°26'8 8.6
2016-Sep-22 23:34N 48°12' W 123°13'26 8.4
2016-Sep-22 20:32N 48°03' W 122°38'25 3.1
2016-Sep-22 12:33N 47°39' W 122°27'  
2016-Sep-17 13:34N 47°38' W 122°26'6 6.1
2016-Sep-17 12:34N 47°44' W 122°27'14 6.8
2016-Sep-17 10:33N 47°57' W 122°34'11 7.8
2016-Sep-17 09:11N 48°07' W 122°41'13 8.0
2016-Sep-17 07:33N 48°19' W 122°47'18 9.0
2016-Sep-17 05:32N 48°37' W 122°45'9 8.6
2016-Sep-17 04:30N 48°46' W 122°50'32 8.0
2016-Sep-17 00:34N 49°06' W 123°27'54 7.7
2016-Sep-16 17:32N 49°39' W 124°32'16 8.1
2016-Sep-16 15:33N 49°49' W 124°52'23 7.8
2016-Sep-16 12:32N 50°05' W 125°17'75 7.3
2016-Sep-16 02:18N 50°43' W 126°58'12 6.7
2016-Sep-16 00:33N 50°50' W 127°14'15 7.7
2016-Sep-15 22:33N 50°59' W 127°34'7 7.0
2016-Sep-15 21:33N 51°04' W 127°41'8 7.4
2016-Sep-15 20:29N 51°10' W 127°50'15 7.6
2016-Sep-15 18:30N 51°24' W 127°59'  
Track history (hours):
 
Tides and Currents Weather Stations Pressure Air Temp Water Temp Dewpoint Dewpoint Depression Visibility Wind Speed Wind Dir Waves Ship Positions

Polar Ranger

Owner: Dunlap Towing Co., LaConner, WA. More information available from US FCC via Universal Licensing System and Coast Guard Vessel Documentation Center.

Last reported at 2016-Sep-25 17:33 UTC. Time now 2016-Sep-26 00:20 UTC.
Position N 42°04' W 125°37'.

Type: Towing. MMSI: 367090860.

Date/timePositionNaut miles runAvg speedWind from/ knotsBaromVisibWave heightAir tempDewpointWater temp
2016-Sep-25 17:33N 42°04' W 125°37'8 7.9
2016-Sep-25 16:33N 42°12' W 125°37'17 8.2
2016-Sep-25 14:27N 42°29' W 125°38'17 8.9
2016-Sep-25 12:31N 42°46' W 125°38'9 9.0
2016-Sep-25 11:33N 42°55' W 125°39'9 9.4
2016-Sep-25 10:33N 43°04' W 125°38'9 8.9
2016-Sep-25 09:33N 43°13' W 125°38'17 8.7
2016-Sep-25 07:34N 43°31' W 125°37'26 8.5
2016-Sep-25 04:34N 43°56' W 125°34'32 8.1
2016-Sep-25 00:32N 44°29' W 125°32'15 7.7
2016-Sep-24 22:33N 44°44' W 125°31'8 7.5
2016-Sep-24 21:32N 44°51' W 125°30'16 7.6
2016-Sep-24 19:28N 45°07' W 125°29'5 5.6
2016-Sep-24 18:32N 45°12' W 125°28'8 8.0
2016-Sep-24 17:33N 45°20' W 125°28'8 8.0
2016-Sep-24 16:33N 45°28' W 125°27'16 8.1
2016-Sep-24 14:33N 45°44' W 125°27'17 8.0
2016-Sep-24 12:28N 46°01' W 125°26'17 7.5
2016-Sep-24 10:15N 46°18' W 125°23'6 7.3
2016-Sep-24 09:26N 46°23' W 125°23'112 4.7
2016-Sep-23 09:31N 48°14' W 125°02'20 6.8
2016-Sep-23 06:33N 48°24' W 124°36'19 9.5
2016-Sep-23 04:31N 48°16' W 124°09'7 7.4
2016-Sep-23 03:31N 48°13' W 123°59'7 6.9
2016-Sep-23 02:32N 48°12' W 123°49'7 7.5
2016-Sep-23 01:33N 48°11' W 123°38'8 7.9
2016-Sep-23 00:33N 48°12' W 123°26'8 8.6
2016-Sep-22 23:34N 48°12' W 123°13'26 8.4
2016-Sep-22 20:32N 48°03' W 122°38'25 3.1
2016-Sep-22 12:33N 47°39' W 122°27'  
2016-Sep-17 13:34N 47°38' W 122°26'6 6.1
2016-Sep-17 12:34N 47°44' W 122°27'14 6.8
2016-Sep-17 10:33N 47°57' W 122°34'11 7.8
2016-Sep-17 09:11N 48°07' W 122°41'13 8.0
2016-Sep-17 07:33N 48°19' W 122°47'18 9.0
2016-Sep-17 05:32N 48°37' W 122°45'9 8.6
2016-Sep-17 04:30N 48°46' W 122°50'32 8.0
2016-Sep-17 00:34N 49°06' W 123°27'54 7.7
2016-Sep-16 17:32N 49°39' W 124°32'16 8.1
2016-Sep-16 15:33N 49°49' W 124°52'23 7.8
2016-Sep-16 12:32N 50°05' W 125°17'75 7.3
2016-Sep-16 02:18N 50°43' W 126°58'12 6.7
2016-Sep-16 00:33N 50°50' W 127°14'15 7.7
2016-Sep-15 22:33N 50°59' W 127°34'7 7.0
2016-Sep-15 21:33N 51°04' W 127°41'8 7.4
2016-Sep-15 20:29N 51°10' W 127°50'15 7.6
2016-Sep-15 18:30N 51°24' W 127°59'  

Dump ship's entire track history